Time;durP1;ratioP1;P1;durP2;ratioP2;P2;SDS_P1;SDS_P2;PMS_P1;PMS_P2;Temp;Humidity;BMP_temperature;BMP_pressure;BME280_temperature;BME280_humidity;BME280_pressure;Samples;Min_cycle;Max_cycle;Signal;HPM_P1;HPM_P2
2021/08/25 00:01:12;;;;;;;54.38;28.30;;;;;;;;;;4996337;28;20033;-42
2021/08/25 00:03:39;;;;;;;17.20;10.63;;;;;;;;;;4996234;28;20380;-44
2021/08/25 00:06:05;;;;;;;33.20;18.00;;;;;;;;;;4996219;28;20031;-43
2021/08/25 00:08:31;;;;;;;59.45;37.47;;;;;;;;;;4994690;28;20022;-43
2021/08/25 00:10:57;;;;;;;12.45;7.32;;;;;;;;;;4996064;28;20046;-42
2021/08/25 00:13:23;;;;;;;23.30;15.65;;;;;;;;;;4996099;28;20022;-42
2021/08/25 00:15:50;;;;;;;27.35;16.83;;;;;;;;;;4996035;28;20153;-45
2021/08/25 00:18:17;;;;;;;91.38;51.35;;;;;;;;;;4995798;28;20105;-44
2021/08/25 00:20:43;;;;;;;21.95;12.73;;;;;;;;;;4995630;28;20038;-42
2021/08/25 00:23:09;;;;;;;17.42;11.88;;;;;;;;;;4995786;28;20018;-43
2021/08/25 00:25:36;;;;;;;10.52;7.57;;;;;;;;;;4995671;28;20030;-43
2021/08/25 00:28:02;;;;;;;29.90;18.52;;;;;;;;;;4995848;28;20074;-42
2021/08/25 00:30:30;;;;;;;39.92;20.90;;;;;;;;;;4995674;28;20033;-44
2021/08/25 00:32:56;;;;;;;53.78;27.05;;;;;;;;;;4995731;28;20022;-44
2021/08/25 00:35:23;;;;;;;27.10;17.42;;;;;;;;;;4994174;28;20447;-43
2021/08/25 00:37:49;;;;;;;18.73;9.85;;;;;;;;;;4995627;28;20434;-43
2021/08/25 00:40:15;;;;;;;9.07;6.18;;;;;;;;;;4995345;28;20490;-42
2021/08/25 00:42:41;;;;;;;10.60;6.10;;;;;;;;;;4994924;28;20092;-44
2021/08/25 00:45:09;;;;;;;6.63;4.70;;;;;;;;;;4994194;28;20391;-43
2021/08/25 00:47:36;;;;;;;7.78;4.35;;;;;;;;;;4995289;28;20022;-46
2021/08/25 00:50:03;;;;;;;4.22;3.58;;;;;;;;;;4995306;28;20038;-43
2021/08/25 00:52:29;;;;;;;4.03;3.63;;;;;;;;;;4995159;28;20477;-44
2021/08/25 00:54:55;;;;;;;3.80;3.40;;;;;;;;;;4995099;28;20038;-46
2021/08/25 00:57:21;;;;;;;6.55;3.95;;;;;;;;;;4995193;28;20490;-43
2021/08/25 00:59:47;;;;;;;5.68;3.20;;;;;;;;;;4995379;28;20040;-43
2021/08/25 01:02:13;;;;;;;7.15;3.67;;;;;;;;;;4995312;28;20073;-45
2021/08/25 01:04:40;;;;;;;9.38;4.75;;;;;;;;;;4995093;28;20026;-43
2021/08/25 01:07:07;;;;;;;4.28;3.30;;;;;;;;;;4994934;28;20032;-43
2021/08/25 01:09:36;;;;;;;8.63;3.88;;;;;;;;;;4994819;28;20209;-43
2021/08/25 01:12:02;;;;;;;30.85;14.05;;;;;;;;;;4995005;28;20030;-42
2021/08/25 01:14:28;;;;;;;19.27;9.75;;;;;;;;;;4994836;28;20034;-45
2021/08/25 01:16:55;;;;;;;45.70;26.45;;;;;;;;;;4994875;28;20085;-43
2021/08/25 01:19:22;;;;;;;13.77;8.32;;;;;;;;;;4994837;28;20034;-43
2021/08/25 01:21:50;;;;;;;19.58;8.98;;;;;;;;;;4994606;28;20072;-43
2021/08/25 01:24:18;;;;;;;18.40;11.27;;;;;;;;;;4994679;28;20029;-46
2021/08/25 01:26:45;;;;;;;25.25;16.83;;;;;;;;;;4994527;28;20022;-44
2021/08/25 01:29:31;;;;;;;20.05;14.02;;;;;;;;;;4994511;28;20364;-45
2021/08/25 01:31:57;;;;;;;37.88;20.15;;;;;;;;;;4994497;28;20432;-43
2021/08/25 01:34:23;;;;;;;9.48;6.00;;;;;;;;;;4994293;28;20482;-43
2021/08/25 01:36:50;;;;;;;13.35;7.85;;;;;;;;;;4994374;28;20027;-42
2021/08/25 01:39:16;;;;;;;5.47;3.90;;;;;;;;;;4994127;28;20055;-41
2021/08/25 01:41:43;;;;;;;6.45;3.42;;;;;;;;;;4994348;28;20483;-42
2021/08/25 01:44:09;;;;;;;5.25;3.05;;;;;;;;;;4994357;28;20026;-42
2021/08/25 01:46:36;;;;;;;5.13;2.15;;;;;;;;;;4994455;28;20022;-48
2021/08/25 01:49:05;;;;;;;3.30;1.05;;;;;;;;;;4994408;28;20113;-42
2021/08/25 01:51:31;;;;;;;4.22;1.30;;;;;;;;;;4994483;28;20035;-45
2021/08/25 01:54:00;;;;;;;1.63;1.10;;;;;;;;;;4993703;28;20169;-44
2021/08/25 01:56:27;;;;;;;1.30;0.93;;;;;;;;;;4994098;28;20034;-43
2021/08/25 01:58:53;;;;;;;1.58;0.80;;;;;;;;;;4994164;28;20359;-44
2021/08/25 02:01:19;;;;;;;1.20;1.00;;;;;;;;;;4993894;28;20030;-43
2021/08/25 02:03:48;;;;;;;1.38;1.10;;;;;;;;;;4993732;28;20105;-43
2021/08/25 02:06:16;;;;;;;3.88;1.05;;;;;;;;;;4994234;28;20026;-42
2021/08/25 02:08:42;;;;;;;3.83;1.40;;;;;;;;;;4993654;28;20022;-43
2021/08/25 02:11:09;;;;;;;3.33;1.10;;;;;;;;;;4993832;28;20039;-43
2021/08/25 02:13:35;;;;;;;3.45;0.73;;;;;;;;;;4994103;28;20030;-43
2021/08/25 02:16:01;;;;;;;3.47;0.90;;;;;;;;;;4993747;28;20491;-42
2021/08/25 02:18:29;;;;;;;2.72;0.57;;;;;;;;;;4993939;28;20021;-43
2021/08/25 02:20:55;;;;;;;0.90;0.60;;;;;;;;;;4993995;28;20503;-43
2021/08/25 02:23:21;;;;;;;1.20;0.70;;;;;;;;;;4994046;28;20035;-43
2021/08/25 02:25:47;;;;;;;0.50;0.50;;;;;;;;;;4993810;28;20022;-42
2021/08/25 02:28:13;;;;;;;0.75;0.57;;;;;;;;;;4993733;28;20069;-44
2021/08/25 02:30:40;;;;;;;1.90;0.50;;;;;;;;;;4993752;28;20443;-50
2021/08/25 02:33:07;;;;;;;5.55;0.60;;;;;;;;;;4993699;28;20100;-50
2021/08/25 02:35:33;;;;;;;0.65;0.50;;;;;;;;;;4993675;28;20041;-46
2021/08/25 02:37:59;;;;;;;1.00;0.50;;;;;;;;;;4993986;28;20077;-42
2021/08/25 02:40:25;;;;;;;0.98;0.63;;;;;;;;;;4993554;28;20037;-44
2021/08/25 02:42:52;;;;;;;2.10;0.63;;;;;;;;;;4993761;28;20445;-43
2021/08/25 02:45:20;;;;;;;0.88;0.50;;;;;;;;;;4993747;28;20073;-45
2021/08/25 02:47:47;;;;;;;1.90;0.45;;;;;;;;;;4993593;28;20046;-43
2021/08/25 02:50:13;;;;;;;0.35;0.32;;;;;;;;;;4993722;28;20034;-43
2021/08/25 02:52:39;;;;;;;0.40;0.40;;;;;;;;;;4993810;28;20043;-42
2021/08/25 02:55:05;;;;;;;0.40;0.40;;;;;;;;;;4993541;28;20045;-43
2021/08/25 02:57:32;;;;;;;1.10;0.40;;;;;;;;;;4993483;28;20053;-43
2021/08/25 02:59:58;;;;;;;0.40;0.40;;;;;;;;;;4993608;28;20109;-43
2021/08/25 03:02:24;;;;;;;1.23;0.22;;;;;;;;;;4993325;28;20034;-42
2021/08/25 03:04:50;;;;;;;0.93;0.38;;;;;;;;;;4993419;28;20113;-42
2021/08/25 03:07:16;;;;;;;0.38;0.30;;;;;;;;;;4996919;28;20030;-42
2021/08/25 03:09:42;;;;;;;0.43;0.43;;;;;;;;;;4996757;28;20475;-42
2021/08/25 03:12:08;;;;;;;1.67;0.43;;;;;;;;;;4997049;28;20026;-42
2021/08/25 03:14:35;;;;;;;2.60;0.35;;;;;;;;;;4997263;28;20419;-42
2021/08/25 03:17:01;;;;;;;1.13;0.40;;;;;;;;;;4996947;28;20061;-42
2021/08/25 03:19:27;;;;;;;2.78;0.70;;;;;;;;;;4996962;28;20105;-43
2021/08/25 03:21:54;;;;;;;0.52;0.35;;;;;;;;;;4997220;28;20382;-43
2021/08/25 03:24:20;;;;;;;0.70;0.55;;;;;;;;;;4997121;28;20084;-43
2021/08/25 03:26:46;;;;;;;0.70;0.50;;;;;;;;;;4996857;28;20065;-43
2021/08/25 03:29:12;;;;;;;3.58;0.70;;;;;;;;;;4996908;28;20026;-42
2021/08/25 03:31:38;;;;;;;4.78;0.60;;;;;;;;;;4996706;28;20490;-43
2021/08/25 03:34:04;;;;;;;1.45;0.60;;;;;;;;;;4996494;28;20367;-43
2021/08/25 03:36:30;;;;;;;2.10;0.47;;;;;;;;;;4996659;28;20088;-43
2021/08/25 03:38:59;;;;;;;0.98;0.70;;;;;;;;;;4995255;28;20022;-44
2021/08/25 03:41:25;;;;;;;0.95;0.43;;;;;;;;;;4995188;28;20413;-43
2021/08/25 03:43:51;;;;;;;1.00;0.70;;;;;;;;;;4996707;28;20022;-43
2021/08/25 03:46:17;;;;;;;2.05;0.90;;;;;;;;;;4996692;28;20027;-43
2021/08/25 03:48:43;;;;;;;5.30;0.90;;;;;;;;;;4996409;28;20050;-43
2021/08/25 03:51:09;;;;;;;4.25;0.73;;;;;;;;;;4996689;28;20033;-43
2021/08/25 03:53:35;;;;;;;1.40;0.80;;;;;;;;;;4996549;28;20023;-43
2021/08/25 03:56:01;;;;;;;0.88;0.50;;;;;;;;;;4996356;28;20105;-43
2021/08/25 03:58:27;;;;;;;3.67;0.80;;;;;;;;;;4996378;28;20018;-41
2021/08/25 04:00:53;;;;;;;0.98;0.80;;;;;;;;;;4996529;28;20065;-41
2021/08/25 04:03:22;;;;;;;3.50;0.82;;;;;;;;;;4996441;28;20472;-44
2021/08/25 04:05:48;;;;;;;0.50;0.50;;;;;;;;;;4996258;28;20042;-42
2021/08/25 04:08:14;;;;;;;2.30;0.90;;;;;;;;;;4996012;28;20061;-42
2021/08/25 04:10:40;;;;;;;1.25;0.90;;;;;;;;;;4995848;28;20392;-42
2021/08/25 04:13:07;;;;;;;1.70;0.60;;;;;;;;;;4996201;28;20065;-43
2021/08/25 04:15:33;;;;;;;2.20;0.85;;;;;;;;;;4995856;28;20044;-44
2021/08/25 04:18:01;;;;;;;2.35;0.90;;;;;;;;;;4994872;28;20022;-42
2021/08/25 04:20:27;;;;;;;2.67;1.50;;;;;;;;;;4995752;28;20037;-43
2021/08/25 04:22:53;;;;;;;26.30;13.52;;;;;;;;;;4996002;28;20089;-44
2021/08/25 04:25:19;;;;;;;20.20;11.38;;;;;;;;;;4995655;28;20113;-44
2021/08/25 04:27:45;;;;;;;19.27;11.75;;;;;;;;;;4995813;28;20022;-42
2021/08/25 04:30:12;;;;;;;8.23;5.47;;;;;;;;;;4995661;28;20053;-43
2021/08/25 04:32:40;;;;;;;5.65;3.60;;;;;;;;;;4995654;28;20018;-41
2021/08/25 04:35:06;;;;;;;3.72;2.28;;;;;;;;;;4995586;28;20035;-43
2021/08/25 04:37:32;;;;;;;3.88;2.22;;;;;;;;;;4995509;28;20026;-42
2021/08/25 04:39:59;;;;;;;2.13;1.20;;;;;;;;;;4995339;28;20088;-42
2021/08/25 04:42:25;;;;;;;11.65;6.90;;;;;;;;;;4995416;28;20033;-43
2021/08/25 04:44:51;;;;;;;4.68;2.60;;;;;;;;;;4995461;28;20026;-43
2021/08/25 04:47:17;;;;;;;3.90;1.90;;;;;;;;;;4994104;28;20471;-44
2021/08/25 04:49:43;;;;;;;3.30;1.70;;;;;;;;;;4995424;28;20026;-43
2021/08/25 04:52:13;;;;;;;1.60;1.17;;;;;;;;;;4995223;28;20022;-43
2021/08/25 04:54:40;;;;;;;4.53;1.35;;;;;;;;;;4995029;28;20187;-43
2021/08/25 04:57:06;;;;;;;4.22;2.88;;;;;;;;;;4995308;28;20505;-43
2021/08/25 04:59:32;;;;;;;4.53;2.33;;;;;;;;;;4995351;28;20045;-42
2021/08/25 05:01:58;;;;;;;6.43;3.42;;;;;;;;;;4995121;28;20032;-42
2021/08/25 05:04:24;;;;;;;2.42;1.27;;;;;;;;;;4994962;28;20039;-42
2021/08/25 05:06:52;;;;;;;1.58;0.90;;;;;;;;;;4993595;28;20101;-42
2021/08/25 05:09:18;;;;;;;3.95;0.98;;;;;;;;;;4994742;28;20523;-42
2021/08/25 05:11:45;;;;;;;1.90;0.68;;;;;;;;;;4994888;28;20061;-42
2021/08/25 05:14:13;;;;;;;0.82;0.73;;;;;;;;;;4994887;28;20030;-43
2021/08/25 05:16:39;;;;;;;0.60;0.50;;;;;;;;;;4994935;28;20158;-42
2021/08/25 05:19:05;;;;;;;1.00;0.90;;;;;;;;;;4994691;28;20026;-44
2021/08/25 05:21:31;;;;;;;1.60;1.00;;;;;;;;;;4994993;28;20375;-41
2021/08/25 05:24:01;;;;;;;0.70;0.65;;;;;;;;;;4994507;28;20121;-42
2021/08/25 05:26:27;;;;;;;4.60;1.20;;;;;;;;;;4994539;28;20026;-44
2021/08/25 05:28:53;;;;;;;0.95;0.68;;;;;;;;;;4994445;28;20061;-44
2021/08/25 05:31:19;;;;;;;1.40;0.77;;;;;;;;;;4994419;28;20022;-43
2021/08/25 05:33:45;;;;;;;4.30;0.80;;;;;;;;;;4994445;28;20038;-44
2021/08/25 05:36:13;;;;;;;3.53;1.98;;;;;;;;;;4994628;28;20061;-41
2021/08/25 05:38:39;;;;;;;1.58;1.15;;;;;;;;;;4994294;28;20034;-41
2021/08/25 05:41:05;;;;;;;2.30;1.40;;;;;;;;;;4994370;28;20118;-44
2021/08/25 05:43:32;;;;;;;1.48;0.93;;;;;;;;;;4994348;28;20022;-45
2021/08/25 05:45:58;;;;;;;6.03;2.80;;;;;;;;;;4994171;28;20023;-43
2021/08/25 05:48:26;;;;;;;8.30;3.40;;;;;;;;;;4994170;28;20451;-44
2021/08/25 05:50:52;;;;;;;12.63;6.20;;;;;;;;;;4994146;28;20463;-45
2021/08/25 05:53:18;;;;;;;21.52;12.80;;;;;;;;;;4994315;28;20026;-44
2021/08/25 05:55:47;;;;;;;17.33;8.25;;;;;;;;;;4992752;28;20132;-44
2021/08/25 05:58:13;;;;;;;10.68;5.47;;;;;;;;;;4994157;28;20486;-43
2021/08/25 06:00:39;;;;;;;8.98;5.25;;;;;;;;;;4994025;28;20339;-43
2021/08/25 06:03:05;;;;;;;24.27;11.95;;;;;;;;;;4993973;28;20105;-44
2021/08/25 06:05:31;;;;;;;25.55;11.20;;;;;;;;;;4993898;28;20438;-46
2021/08/25 06:07:57;;;;;;;47.28;24.13;;;;;;;;;;4994112;28;20105;-46
2021/08/25 06:10:23;;;;;;;15.90;8.75;;;;;;;;;;4993622;28;20046;-45
2021/08/25 06:12:49;;;;;;;10.52;6.32;;;;;;;;;;4993876;28;20494;-44
2021/08/25 06:15:15;;;;;;;5.43;2.70;;;;;;;;;;4993699;28;20438;-44
2021/08/25 06:17:41;;;;;;;9.63;6.03;;;;;;;;;;4993857;28;20026;-49
2021/08/25 06:20:08;;;;;;;17.77;10.52;;;;;;;;;;4994002;28;20063;-47
2021/08/25 06:22:34;;;;;;;29.10;12.10;;;;;;;;;;4993853;28;20037;-41
2021/08/25 06:25:00;;;;;;;23.23;11.05;;;;;;;;;;4993701;28;20537;-44
2021/08/25 06:27:29;;;;;;;18.83;9.10;;;;;;;;;;4994004;28;20023;-44
2021/08/25 06:29:55;;;;;;;20.65;12.13;;;;;;;;;;4992750;28;20387;-45
2021/08/25 06:32:22;;;;;;;10.57;6.50;;;;;;;;;;4993812;28;20014;-44
2021/08/25 06:34:48;;;;;;;26.15;15.75;;;;;;;;;;4993711;28;20034;-44
2021/08/25 06:37:14;;;;;;;32.47;17.85;;;;;;;;;;4993623;28;20081;-43
2021/08/25 06:39:40;;;;;;;30.80;18.02;;;;;;;;;;4993499;28;20059;-44
2021/08/25 06:42:06;;;;;;;8.90;5.40;;;;;;;;;;4996994;28;20038;-44
2021/08/25 06:44:32;;;;;;;10.98;6.28;;;;;;;;;;4997586;28;20057;-44
2021/08/25 06:46:58;;;;;;;12.32;5.03;;;;;;;;;;4997541;28;20113;-45
2021/08/25 06:49:24;;;;;;;6.55;3.70;;;;;;;;;;4997475;28;20034;-43
2021/08/25 06:51:50;;;;;;;14.50;6.75;;;;;;;;;;4997461;28;20489;-43
2021/08/25 06:54:16;;;;;;;10.90;7.68;;;;;;;;;;4997503;28;20022;-44
2021/08/25 06:56:42;;;;;;;11.18;7.68;;;;;;;;;;4997350;28;20037;-43
2021/08/25 06:59:08;;;;;;;20.73;12.23;;;;;;;;;;4997256;28;20368;-43
2021/08/25 07:01:35;;;;;;;11.10;8.07;;;;;;;;;;4997296;28;20023;-43
2021/08/25 07:04:01;;;;;;;31.45;20.83;;;;;;;;;;4997194;28;20015;-43
2021/08/25 07:06:27;;;;;;;10.82;6.40;;;;;;;;;;4997389;28;20409;-43
2021/08/25 07:08:53;;;;;;;9.18;4.60;;;;;;;;;;4996953;28;20049;-43
2021/08/25 07:11:19;;;;;;;18.48;11.45;;;;;;;;;;4997177;28;20026;-43
2021/08/25 07:13:45;;;;;;;9.85;5.90;;;;;;;;;;4997098;28;20030;-42
2021/08/25 07:16:14;;;;;;;21.08;11.93;;;;;;;;;;4997016;28;20038;-43
2021/08/25 07:18:43;;;;;;;19.63;12.75;;;;;;;;;;4996892;28;20045;-44
2021/08/25 07:21:09;;;;;;;8.00;5.55;;;;;;;;;;4997093;28;20034;-43
2021/08/25 07:23:35;;;;;;;6.35;2.30;;;;;;;;;;4997380;28;20161;-43
2021/08/25 07:26:01;;;;;;;18.70;9.23;;;;;;;;;;4996896;28;20026;-43
2021/08/25 07:28:27;;;;;;;9.77;5.05;;;;;;;;;;4997028;28;20026;-44
2021/08/25 07:30:54;;;;;;;27.55;10.98;;;;;;;;;;4996866;28;20130;-45
2021/08/25 07:33:22;;;;;;;31.65;13.07;;;;;;;;;;4996552;28;20018;-44
2021/08/25 07:35:48;;;;;;;27.40;13.43;;;;;;;;;;4996709;28;20121;-43
2021/08/25 07:38:15;;;;;;;11.43;5.57;;;;;;;;;;4996353;28;20052;-43
2021/08/25 07:40:41;;;;;;;7.57;2.95;;;;;;;;;;4996460;28;20037;-42
2021/08/25 07:43:09;;;;;;;4.95;2.22;;;;;;;;;;4996487;28;20216;-44
2021/08/25 07:45:37;;;;;;;32.08;20.73;;;;;;;;;;4994757;28;20034;-43
2021/08/25 07:48:05;;;;;;;25.15;11.05;;;;;;;;;;4995854;28;20018;-43
2021/08/25 07:50:34;;;;;;;30.58;13.43;;;;;;;;;;4996177;28;20435;-43
2021/08/25 07:53:01;;;;;;;20.02;8.23;;;;;;;;;;4994401;28;20019;-43
2021/08/25 07:55:29;;;;;;;21.95;10.45;;;;;;;;;;4995766;28;20054;-43
2021/08/25 07:57:55;;;;;;;19.73;9.15;;;;;;;;;;4994332;28;20030;-43
2021/08/25 08:00:21;;;;;;;5.88;3.13;;;;;;;;;;4995644;28;20360;-43
2021/08/25 08:02:48;;;;;;;7.20;4.90;;;;;;;;;;4995396;28;20018;-43
2021/08/25 08:05:14;;;;;;;14.77;4.72;;;;;;;;;;4995593;28;20513;-43
2021/08/25 08:07:40;;;;;;;6.18;2.67;;;;;;;;;;4995450;28;20030;-43
2021/08/25 08:10:07;;;;;;;16.33;9.73;;;;;;;;;;4995157;28;20105;-44
2021/08/25 08:12:33;;;;;;;17.42;8.75;;;;;;;;;;4995346;28;20110;-44
2021/08/25 08:15:00;;;;;;;11.45;5.53;;;;;;;;;;4995524;28;20061;-43
2021/08/25 08:17:26;;;;;;;44.33;21.35;;;;;;;;;;4995932;28;20064;-41
2021/08/25 08:19:55;;;;;;;96.75;37.22;;;;;;;;;;4995877;28;20030;-44
2021/08/25 08:22:21;;;;;;;75.10;36.20;;;;;;;;;;4995768;28;20027;-43
2021/08/25 08:24:47;;;;;;;88.13;52.83;;;;;;;;;;4995552;28;20072;-43
2021/08/25 08:27:14;;;;;;;32.83;18.50;;;;;;;;;;4995811;28;20033;-42
2021/08/25 08:29:40;;;;;;;11.68;5.95;;;;;;;;;;4995955;28;20148;-43
2021/08/25 08:32:11;;;;;;;31.80;7.50;;;;;;;;;;4995595;28;20124;-43
2021/08/25 08:34:38;;;;;;;14.10;7.38;;;;;;;;;;4995790;28;20048;-43
2021/08/25 08:37:04;;;;;;;18.52;9.15;;;;;;;;;;4995608;28;20372;-43
2021/08/25 08:39:30;;;;;;;47.03;20.90;;;;;;;;;;4995554;28;20027;-42
2021/08/25 08:41:59;;;;;;;69.57;24.17;;;;;;;;;;4995621;28;20117;-42
2021/08/25 08:44:26;;;;;;;48.15;22.40;;;;;;;;;;4995624;28;20030;-41
2021/08/25 08:46:52;;;;;;;55.70;24.80;;;;;;;;;;4995593;28;20026;-43
2021/08/25 08:49:19;;;;;;;16.98;9.43;;;;;;;;;;4995407;28;20038;-43
2021/08/25 08:51:45;;;;;;;16.88;8.77;;;;;;;;;;4995561;28;20029;-42
2021/08/25 08:54:15;;;;;;;8.05;5.00;;;;;;;;;;4995483;28;20368;-42
2021/08/25 08:56:41;;;;;;;66.22;21.70;;;;;;;;;;4994999;28;20053;-43
2021/08/25 08:59:07;;;;;;;25.52;14.43;;;;;;;;;;4994754;28;20014;-53
2021/08/25 09:01:35;;;;;;;46.00;19.55;;;;;;;;;;4994659;28;20018;-44
2021/08/25 09:04:01;;;;;;;32.42;15.95;;;;;;;;;;4994563;28;20073;-45
2021/08/25 09:06:44;;;;;;;17.08;8.05;;;;;;;;;;4994748;28;20029;-44
2021/08/25 09:09:10;;;;;;;17.88;10.38;;;;;;;;;;4994536;28;20034;-42
2021/08/25 09:11:48;;;;;;;33.72;18.83;;;;;;;;;;4994563;28;20035;-42
2021/08/25 09:14:14;;;;;;;23.08;11.18;;;;;;;;;;4993373;28;20386;-45
2021/08/25 09:16:40;;;;;;;35.90;17.20;;;;;;;;;;4994519;28;20030;-43
2021/08/25 09:19:13;;;;;;;44.95;25.05;;;;;;;;;;4994546;28;20030;-42
2021/08/25 09:21:47;;;;;;;20.88;11.13;;;;;;;;;;4994247;28;20030;-42
2021/08/25 09:24:14;;;;;;;27.23;12.70;;;;;;;;;;4994856;28;20034;-42
2021/08/25 09:26:58;;;;;;;15.05;7.47;;;;;;;;;;4994810;28;20057;-43
2021/08/25 09:29:25;;;;;;;32.50;19.58;;;;;;;;;;4994917;28;20041;-43
2021/08/25 09:31:51;;;;;;;30.13;18.15;;;;;;;;;;4994708;28;20022;-42
2021/08/25 09:34:33;;;;;;;27.23;16.73;;;;;;;;;;4994655;28;20387;-42
2021/08/25 09:37:07;;;;;;;19.42;10.45;;;;;;;;;;4994567;28;20030;-42
2021/08/25 09:39:34;;;;;;;14.43;6.47;;;;;;;;;;4994323;28;20027;-42
2021/08/25 09:42:04;;;;;;;13.25;6.20;;;;;;;;;;4994527;28;20391;-43
2021/08/25 09:44:30;;;;;;;11.02;3.88;;;;;;;;;;4994587;28;20119;-42
2021/08/25 09:46:56;;;;;;;46.33;12.50;;;;;;;;;;4994689;28;20089;-42
2021/08/25 09:49:22;;;;;;;23.88;6.75;;;;;;;;;;4994688;28;20025;-43
2021/08/25 09:51:50;;;;;;;10.45;3.83;;;;;;;;;;4994588;28;20084;-42
2021/08/25 09:54:17;;;;;;;7.10;2.90;;;;;;;;;;4994600;28;20027;-43
2021/08/25 09:56:44;;;;;;;2.95;2.20;;;;;;;;;;4994352;28;20050;-43
2021/08/25 09:59:11;;;;;;;4.10;2.35;;;;;;;;;;4994420;28;20030;-44
2021/08/25 10:01:38;;;;;;;3.42;2.30;;;;;;;;;;4994246;28;20026;-44
2021/08/25 10:04:06;;;;;;;4.38;2.83;;;;;;;;;;4994162;28;20501;-43
2021/08/25 10:06:32;;;;;;;3.50;2.40;;;;;;;;;;4994279;28;20062;-43
2021/08/25 10:08:59;;;;;;;5.07;2.30;;;;;;;;;;4994132;28;20189;-43
2021/08/25 10:11:29;;;;;;;2.63;2.33;;;;;;;;;;4994088;28;20057;-43
2021/08/25 10:13:57;;;;;;;5.50;2.40;;;;;;;;;;4994270;28;20023;-44
2021/08/25 10:16:38;;;;;;;7.05;2.50;;;;;;;;;;4993357;28;20042;-44
2021/08/25 10:19:40;;;;;;;4.28;2.10;;;;;;;;;;4994457;28;20473;-44
2021/08/25 10:22:10;;;;;;;161.13;102.90;;;;;;;;;;4972488;28;20053;-43
2021/08/25 10:24:54;;;;;;;17.25;10.57;;;;;;;;;;4972931;28;20066;-43
2021/08/25 10:27:21;;;;;;;27.00;11.50;;;;;;;;;;4972541;28;20549;-43
2021/08/25 10:30:07;;;;;;;26.58;11.88;;;;;;;;;;4972563;28;20070;-43
2021/08/25 10:32:34;;;;;;;15.57;7.68;;;;;;;;;;4934254;28;20130;-44
2021/08/25 10:35:14;;;;;;;15.00;6.15;;;;;;;;;;4933940;29;20044;-46
2021/08/25 10:37:41;;;;;;;3.50;2.72;;;;;;;;;;4934300;29;20074;-43
2021/08/25 10:40:08;;;;;;;6.13;2.40;;;;;;;;;;4933992;29;20039;-43
2021/08/25 10:42:43;;;;;;;8.95;2.60;;;;;;;;;;4933771;29;20508;-45
2021/08/25 10:45:10;;;;;;;32.33;21.75;;;;;;;;;;4934102;29;20432;-44
2021/08/25 10:47:58;;;;;;;28.38;16.17;;;;;;;;;;4934263;29;20023;-49
2021/08/25 10:50:25;;;;;;;14.07;7.72;;;;;;;;;;4934205;29;20528;-50
2021/08/25 10:52:51;;;;;;;14.95;9.98;;;;;;;;;;4933830;29;20536;-44
2021/08/25 10:55:17;;;;;;;4.70;2.67;;;;;;;;;;4930255;29;20037;-43
2021/08/25 10:57:46;;;;;;;3.08;2.22;;;;;;;;;;4915207;29;20045;-44
2021/08/25 11:00:15;;;;;;;4.50;2.13;;;;;;;;;;4915055;29;20027;-43
2021/08/25 11:02:41;;;;;;;3.17;1.95;;;;;;;;;;4914879;29;20040;-44
2021/08/25 11:05:07;;;;;;;4.43;2.05;;;;;;;;;;4914796;29;20083;-44
2021/08/25 11:07:52;;;;;;;2.90;2.33;;;;;;;;;;4914879;29;20422;-44
2021/08/25 11:10:23;;;;;;;3.47;2.28;;;;;;;;;;4984817;28;20073;-44
2021/08/25 11:12:49;;;;;;;6.18;2.30;;;;;;;;;;4993756;28;20462;-44
2021/08/25 11:15:16;;;;;;;4.15;2.38;;;;;;;;;;4993565;28;20489;-46
2021/08/25 11:17:42;;;;;;;30.17;17.30;;;;;;;;;;4993591;28;20031;-45
2021/08/25 11:20:09;;;;;;;19.27;8.70;;;;;;;;;;4993689;28;20033;-45
2021/08/25 11:22:37;;;;;;;18.70;9.77;;;;;;;;;;4993549;28;20018;-46
2021/08/25 11:25:04;;;;;;;25.85;12.73;;;;;;;;;;4993544;28;20030;-45
2021/08/25 11:27:30;;;;;;;17.70;9.15;;;;;;;;;;4995621;28;20038;-45
2021/08/25 11:30:15;;;;;;;12.82;6.18;;;;;;;;;;4997198;28;20383;-44
2021/08/25 11:32:44;;;;;;;10.55;6.25;;;;;;;;;;4997050;28;20030;-43
2021/08/25 11:35:13;;;;;;;6.68;3.33;;;;;;;;;;4996827;28;20488;-43
2021/08/25 11:37:44;;;;;;;5.28;2.88;;;;;;;;;;4997183;28;20027;-43
2021/08/25 11:40:10;;;;;;;4.37;2.60;;;;;;;;;;4997066;28;20517;-44
2021/08/25 11:42:37;;;;;;;3.38;2.25;;;;;;;;;;4996925;28;20038;-44
2021/08/25 11:45:27;;;;;;;4.05;2.67;;;;;;;;;;4997001;28;20030;-44
2021/08/25 11:47:54;;;;;;;30.45;15.80;;;;;;;;;;4995465;28;20060;-43
2021/08/25 11:50:22;;;;;;;36.67;15.88;;;;;;;;;;4996910;28;20530;-44
2021/08/25 11:52:49;;;;;;;4.15;2.67;;;;;;;;;;4996865;28;20026;-44
2021/08/25 11:55:15;;;;;;;35.22;16.80;;;;;;;;;;4997091;28;20416;-43
2021/08/25 11:57:41;;;;;;;16.17;9.40;;;;;;;;;;4996469;28;20399;-41
2021/08/25 12:00:08;;;;;;;82.75;39.85;;;;;;;;;;4996665;28;20022;-44
2021/08/25 12:02:53;;;;;;;12.32;5.45;;;;;;;;;;4996529;28;20126;-44
2021/08/25 12:05:39;;;;;;;8.25;3.63;;;;;;;;;;4996656;28;20085;-43
2021/08/25 12:08:11;;;;;;;4.97;2.60;;;;;;;;;;4996329;28;20033;-43
2021/08/25 12:10:41;;;;;;;4.88;2.50;;;;;;;;;;4996208;28;20125;-44
2021/08/25 12:13:12;;;;;;;6.03;2.75;;;;;;;;;;4996228;28;20081;-44
2021/08/25 12:15:42;;;;;;;6.28;2.30;;;;;;;;;;4995003;28;20504;-45
2021/08/25 12:18:08;;;;;;;5.93;2.10;;;;;;;;;;4996329;28;20046;-44
2021/08/25 12:20:38;;;;;;;3.88;2.60;;;;;;;;;;4996497;28;20097;-44
2021/08/25 12:23:05;;;;;;;3.58;2.20;;;;;;;;;;4996196;28;20036;-44
2021/08/25 12:25:52;;;;;;;2.85;1.95;;;;;;;;;;4996179;28;20034;-43
2021/08/25 12:28:36;;;;;;;7.88;6.07;;;;;;;;;;4996045;28;20058;-43
2021/08/25 12:31:12;;;;;;;6.28;2.70;;;;;;;;;;4996006;28;20027;-43
2021/08/25 12:33:39;;;;;;;7.38;2.60;;;;;;;;;;4995787;28;20030;-43
2021/08/25 12:36:23;;;;;;;6.97;2.95;;;;;;;;;;4995893;28;20088;-41
2021/08/25 12:38:50;;;;;;;5.80;2.72;;;;;;;;;;4995202;28;20410;-42
2021/08/25 12:41:17;;;;;;;4.30;2.70;;;;;;;;;;4995656;28;20096;-43
2021/08/25 12:43:44;;;;;;;7.57;3.13;;;;;;;;;;4995640;28;20109;-42
2021/08/25 12:46:10;;;;;;;4.53;2.40;;;;;;;;;;4995888;28;20036;-42
2021/08/25 12:48:36;;;;;;;3.92;2.30;;;;;;;;;;4995004;28;20027;-41
2021/08/25 12:51:05;;;;;;;5.82;2.67;;;;;;;;;;4994736;28;20081;-42
2021/08/25 12:53:31;;;;;;;139.25;102.45;;;;;;;;;;4994949;28;20044;-42
2021/08/25 12:55:57;;;;;;;35.10;19.73;;;;;;;;;;4994763;28;20037;-43
2021/08/25 12:58:23;;;;;;;13.93;7.15;;;;;;;;;;4994621;28;20022;-42
2021/08/25 13:00:49;;;;;;;38.70;21.10;;;;;;;;;;4994884;28;20475;-43
2021/08/25 13:03:15;;;;;;;26.83;14.35;;;;;;;;;;4995173;28;20440;-42
2021/08/25 13:05:41;;;;;;;99.28;57.20;;;;;;;;;;4995333;28;20030;-41
2021/08/25 13:08:07;;;;;;;19.10;8.50;;;;;;;;;;4994955;28;20113;-42
2021/08/25 13:10:34;;;;;;;40.03;20.58;;;;;;;;;;4994653;28;20046;-43
2021/08/25 13:13:00;;;;;;;23.40;12.50;;;;;;;;;;4994578;28;20380;-42
2021/08/25 13:15:26;;;;;;;40.20;22.52;;;;;;;;;;4994480;28;20076;-42
2021/08/25 13:17:52;;;;;;;19.55;11.07;;;;;;;;;;4994928;28;20041;-42
2021/08/25 13:20:20;;;;;;;10.80;5.28;;;;;;;;;;4994589;28;20018;-42
2021/08/25 13:22:46;;;;;;;11.57;5.25;;;;;;;;;;4994365;28;20026;-42
2021/08/25 13:25:12;;;;;;;17.27;7.78;;;;;;;;;;4994509;28;20015;-42
2021/08/25 13:27:38;;;;;;;57.10;39.30;;;;;;;;;;4994309;28;20029;-43
2021/08/25 13:30:05;;;;;;;15.57;10.02;;;;;;;;;;4994301;28;20029;-43
2021/08/25 13:32:31;;;;;;;43.40;31.38;;;;;;;;;;4991731;28;20077;-43
2021/08/25 13:34:57;;;;;;;12.45;9.80;;;;;;;;;;4994211;28;20089;-42
2021/08/25 13:37:23;;;;;;;12.15;6.30;;;;;;;;;;4994133;28;20117;-43
2021/08/25 13:39:49;;;;;;;6.15;3.30;;;;;;;;;;4994634;28;20030;-43
2021/08/25 13:42:15;;;;;;;71.22;46.97;;;;;;;;;;4994208;28;20039;-43
2021/08/25 13:44:41;;;;;;;50.30;36.20;;;;;;;;;;4994096;28;20026;-42
2021/08/25 13:47:07;;;;;;;81.18;53.60;;;;;;;;;;4993902;28;20022;-43
2021/08/25 13:49:34;;;;;;;63.80;37.58;;;;;;;;;;4994032;28;20034;-42
2021/08/25 13:52:00;;;;;;;27.67;17.08;;;;;;;;;;4994561;28;20382;-43
2021/08/25 13:54:26;;;;;;;23.63;11.93;;;;;;;;;;4994426;28;20058;-43
2021/08/25 13:56:52;;;;;;;50.58;34.22;;;;;;;;;;4994334;28;20034;-43
2021/08/25 13:59:18;;;;;;;13.13;8.70;;;;;;;;;;4994303;28;20045;-44
2021/08/25 14:01:44;;;;;;;10.15;5.28;;;;;;;;;;4994264;28;20034;-44
2021/08/25 14:04:10;;;;;;;8.10;4.97;;;;;;;;;;4994120;28;20022;-43
2021/08/25 14:06:36;;;;;;;7.97;3.42;;;;;;;;;;4994007;28;20459;-42
2021/08/25 14:09:03;;;;;;;7.10;3.45;;;;;;;;;;4993732;28;20066;-43
2021/08/25 14:11:29;;;;;;;9.15;2.60;;;;;;;;;;4989227;28;20041;-42
2021/08/25 14:13:55;;;;;;;11.98;3.40;;;;;;;;;;4994050;28;20105;-43
2021/08/25 14:16:23;;;;;;;9.80;5.10;;;;;;;;;;4993838;28;20030;-42
2021/08/25 14:18:49;;;;;;;5.85;3.30;;;;;;;;;;4993714;28;20018;-43
2021/08/25 14:21:18;;;;;;;3.78;2.35;;;;;;;;;;4994047;28;20030;-43
2021/08/25 14:23:46;;;;;;;6.93;2.92;;;;;;;;;;4994139;28;20398;-43
2021/08/25 14:26:13;;;;;;;5.57;2.45;;;;;;;;;;4993989;28;20073;-43
2021/08/25 14:28:39;;;;;;;3.45;2.40;;;;;;;;;;4984194;28;20045;-41
2021/08/25 14:31:06;;;;;;;7.28;2.42;;;;;;;;;;4989017;28;20022;-42
2021/08/25 14:33:32;;;;;;;2.95;1.73;;;;;;;;;;4993845;28;20422;-43
2021/08/25 14:35:58;;;;;;;4.10;2.03;;;;;;;;;;4993742;28;20125;-43